createdAt,value
2023-03-13T00:01:09.601Z,10.90
2023-03-13T00:03:36.164Z,9.47
2023-03-13T00:06:02.719Z,9.53
2023-03-13T00:08:30.119Z,12.87
2023-03-13T00:10:56.853Z,11.93
2023-03-13T00:13:23.628Z,9.87
2023-03-13T00:15:50.166Z,11.13
2023-03-13T00:18:16.771Z,11.80
2023-03-13T00:20:43.362Z,14.85
2023-03-13T00:23:09.932Z,9.77
2023-03-13T00:25:36.482Z,11.00
2023-03-13T00:28:03.073Z,13.47
2023-03-13T00:30:29.664Z,13.40
2023-03-13T00:32:56.355Z,11.10
2023-03-13T00:35:23.064Z,7.77
2023-03-13T00:37:50.119Z,12.77
2023-03-13T00:40:16.761Z,6.63
2023-03-13T00:42:43.320Z,11.97
2023-03-13T00:45:10.333Z,8.30
2023-03-13T00:47:36.904Z,12.80
2023-03-13T00:50:03.775Z,9.03
2023-03-13T00:52:30.453Z,10.10
2023-03-13T00:54:57.023Z,11.17
2023-03-13T00:57:23.662Z,11.03
2023-03-13T00:59:50.312Z,11.50
2023-03-13T01:02:16.909Z,9.37
2023-03-13T01:04:43.612Z,13.17
2023-03-13T01:07:10.200Z,11.23
2023-03-13T01:09:36.813Z,11.43
2023-03-13T01:12:03.572Z,11.23
2023-03-13T01:14:30.158Z,10.47
2023-03-13T01:16:56.759Z,14.57
2023-03-13T01:19:23.345Z,12.10
2023-03-13T01:21:49.950Z,13.40
2023-03-13T01:24:17.041Z,8.70
2023-03-13T01:26:43.661Z,8.93
2023-03-13T01:29:10.274Z,7.57
2023-03-13T01:31:37.058Z,13.07
2023-03-13T01:34:05.317Z,12.67
2023-03-13T01:36:32.784Z,13.33
2023-03-13T01:39:00.550Z,9.87
2023-03-13T01:41:28.966Z,9.23
2023-03-13T01:43:56.349Z,11.43
2023-03-13T01:46:28.382Z,8.37
2023-03-13T01:49:15.368Z,17.97
2023-03-13T01:51:55.296Z,9.10
2023-03-13T01:54:38.476Z,10.30
2023-03-13T01:57:09.464Z,7.73
2023-03-13T01:59:43.979Z,11.03
2023-03-13T02:02:11.166Z,9.10
2023-03-13T02:04:45.967Z,7.97
2023-03-13T02:07:17.064Z,6.50
2023-03-13T02:09:49.361Z,8.13
2023-03-13T02:12:25.645Z,8.37
2023-03-13T02:14:53.562Z,11.57
2023-03-13T02:17:20.823Z,7.00
2023-03-13T02:19:51.964Z,10.00
2023-03-13T02:22:50.785Z,11.40
2023-03-13T02:25:23.223Z,9.47
2023-03-13T02:28:07.255Z,9.07
2023-03-13T02:30:34.321Z,8.50
2023-03-13T02:33:02.722Z,8.93
2023-03-13T02:35:31.683Z,8.63
2023-03-13T02:38:02.289Z,7.27
2023-03-13T02:40:35.042Z,7.30
2023-03-13T02:43:06.369Z,9.33
2023-03-13T02:45:32.952Z,6.33
2023-03-13T02:47:59.527Z,7.53
2023-03-13T02:50:26.104Z,6.43
2023-03-13T02:53:03.007Z,10.03
2023-03-13T02:55:41.276Z,7.60
2023-03-13T02:58:08.445Z,8.60
2023-03-13T03:00:35.701Z,7.80
2023-03-13T03:03:02.385Z,9.50
2023-03-13T03:05:28.943Z,10.80
2023-03-13T03:07:55.736Z,12.73
2023-03-13T03:10:22.278Z,7.03
2023-03-13T03:12:48.880Z,8.30
2023-03-13T03:15:15.485Z,8.50
2023-03-13T03:17:42.055Z,4.90
2023-03-13T03:20:11.870Z,6.57
2023-03-13T03:22:40.692Z,5.63
2023-03-13T03:25:09.042Z,7.60
2023-03-13T03:27:36.392Z,4.17
2023-03-13T03:30:04.404Z,4.67
2023-03-13T03:32:31.096Z,5.03
2023-03-13T03:34:57.714Z,4.70
2023-03-13T03:37:24.306Z,6.47
2023-03-13T03:39:50.857Z,5.00
2023-03-13T03:42:17.418Z,4.13
2023-03-13T03:44:44.019Z,5.13
2023-03-13T03:47:10.687Z,3.63
2023-03-13T03:49:37.363Z,5.83
2023-03-13T03:52:04.065Z,6.93
2023-03-13T03:54:30.630Z,5.40
2023-03-13T03:56:57.252Z,5.60
2023-03-13T03:59:23.841Z,5.07
2023-03-13T04:01:50.458Z,6.03
2023-03-13T04:04:17.053Z,5.50
2023-03-13T04:06:43.621Z,3.43
2023-03-13T04:09:10.327Z,3.47
2023-03-13T04:11:36.875Z,5.47
2023-03-13T04:14:03.507Z,3.47
2023-03-13T04:16:30.121Z,2.93
2023-03-13T04:18:56.743Z,2.30
2023-03-13T04:21:23.334Z,3.67
2023-03-13T04:23:49.883Z,3.83
2023-03-13T04:26:16.468Z,2.20
2023-03-13T04:28:43.046Z,1.67
2023-03-13T04:31:09.755Z,1.40
2023-03-13T04:33:36.980Z,2.10
2023-03-13T04:36:04.418Z,1.87
2023-03-13T04:38:31.120Z,1.40
2023-03-13T04:40:57.705Z,1.60
2023-03-13T04:43:24.254Z,3.45
2023-03-13T04:45:54.839Z,2.13
2023-03-13T04:48:21.781Z,1.83
2023-03-13T04:50:48.651Z,1.77
2023-03-13T04:53:15.463Z,5.03
2023-03-13T04:55:42.304Z,1.73
2023-03-13T04:58:08.908Z,2.40
2023-03-13T05:00:35.452Z,1.67
2023-03-13T05:03:01.992Z,1.30
2023-03-13T05:05:28.677Z,1.97
2023-03-13T05:07:55.328Z,2.07
2023-03-13T05:10:21.888Z,1.63
2023-03-13T05:12:48.578Z,1.50
2023-03-13T05:15:15.227Z,2.37
2023-03-13T05:17:41.961Z,1.80
2023-03-13T05:20:11.282Z,1.23
2023-03-13T05:22:38.374Z,2.37
2023-03-13T05:25:05.834Z,1.57
2023-03-13T05:27:32.551Z,1.60
2023-03-13T05:29:59.107Z,1.57
2023-03-13T05:32:25.747Z,1.80
2023-03-13T05:34:52.362Z,2.23
2023-03-13T05:37:19.085Z,1.60
2023-03-13T05:39:45.790Z,1.37
2023-03-13T05:42:12.352Z,2.57
2023-03-13T05:44:38.930Z,2.60
2023-03-13T05:47:05.655Z,3.17
2023-03-13T05:49:32.307Z,1.37
2023-03-13T05:51:58.884Z,1.30
2023-03-13T05:54:25.440Z,1.50
2023-03-13T05:56:52.139Z,1.35
2023-03-13T05:59:18.780Z,2.57
2023-03-13T06:01:45.348Z,3.07
2023-03-13T06:04:12.139Z,2.63
2023-03-13T06:06:38.889Z,1.67
2023-03-13T06:09:06.006Z,2.70
2023-03-13T06:11:32.615Z,2.10
2023-03-13T06:13:59.233Z,1.20
2023-03-13T06:16:25.825Z,1.50
2023-03-13T06:18:52.396Z,1.40
2023-03-13T06:21:18.987Z,1.47
2023-03-13T06:23:45.687Z,0.87
2023-03-13T06:26:12.584Z,2.13
2023-03-13T06:28:39.218Z,1.30
2023-03-13T06:31:07.445Z,2.13
2023-03-13T06:33:34.851Z,1.20
2023-03-13T06:36:02.210Z,1.43
2023-03-13T06:38:29.281Z,1.23
2023-03-13T06:40:56.022Z,2.17
2023-03-13T06:43:22.778Z,4.17
2023-03-13T06:45:49.940Z,1.77
2023-03-13T06:48:16.926Z,2.97
2023-03-13T06:50:43.812Z,1.63
2023-03-13T06:53:19.556Z,1.23
2023-03-13T06:55:47.159Z,2.07
2023-03-13T06:58:28.779Z,1.07
2023-03-13T07:00:58.733Z,2.03
2023-03-13T07:03:25.538Z,1.40
2023-03-13T07:05:56.915Z,0.90
2023-03-13T07:08:25.561Z,1.87
2023-03-13T07:10:53.056Z,2.13
2023-03-13T07:13:21.566Z,1.23
2023-03-13T07:15:48.588Z,1.13
2023-03-13T07:18:15.336Z,1.03
2023-03-13T07:20:41.937Z,1.60
2023-03-13T07:23:08.616Z,1.07
2023-03-13T07:25:35.407Z,1.60
2023-03-13T07:28:02.017Z,2.53
2023-03-13T07:30:28.824Z,1.63
2023-03-13T07:32:55.578Z,0.90
2023-03-13T07:35:22.196Z,2.13
2023-03-13T07:37:48.949Z,1.10
2023-03-13T07:40:15.706Z,1.33
2023-03-13T07:42:42.481Z,1.70
2023-03-13T07:45:09.854Z,0.93
2023-03-13T07:47:36.826Z,1.97
2023-03-13T07:50:03.626Z,0.90
2023-03-13T07:52:30.323Z,2.13
2023-03-13T07:54:56.908Z,1.30
2023-03-13T07:57:23.589Z,1.07
2023-03-13T07:59:50.507Z,1.30
2023-03-13T08:02:17.302Z,2.97
2023-03-13T08:04:44.022Z,1.37
2023-03-13T08:07:11.338Z,1.77
2023-03-13T08:09:38.684Z,1.37
2023-03-13T08:12:05.607Z,1.23
2023-03-13T08:14:32.233Z,1.93
2023-03-13T08:16:58.938Z,1.37
2023-03-13T08:19:25.620Z,0.93
2023-03-13T08:21:52.182Z,1.30
2023-03-13T08:24:18.772Z,1.30
2023-03-13T08:26:45.407Z,1.25
2023-03-13T08:29:14.549Z,2.63
2023-03-13T08:31:49.943Z,2.37
2023-03-13T08:34:17.747Z,1.43
2023-03-13T08:36:44.572Z,1.30
2023-03-13T08:39:13.477Z,1.47
2023-03-13T08:41:41.247Z,2.13
2023-03-13T08:44:11.313Z,1.27
2023-03-13T08:46:38.539Z,3.07
2023-03-13T08:49:06.962Z,1.80
2023-03-13T08:51:34.562Z,1.90
2023-03-13T08:54:01.977Z,1.97
2023-03-13T08:56:30.493Z,2.53
2023-03-13T08:59:00.051Z,1.80
2023-03-13T09:01:29.437Z,3.05
2023-03-13T09:03:57.733Z,1.57
2023-03-13T09:06:24.596Z,1.37
2023-03-13T09:08:51.231Z,1.93
2023-03-13T09:11:20.963Z,2.17
2023-03-13T09:13:50.148Z,2.10
2023-03-13T09:16:18.895Z,1.67
2023-03-13T09:18:45.688Z,2.30
2023-03-13T09:21:14.979Z,5.33
2023-03-13T09:23:41.595Z,1.77
2023-03-13T09:26:08.478Z,2.27
2023-03-13T09:28:35.536Z,4.20
2023-03-13T09:31:10.212Z,1.40
2023-03-13T09:33:37.287Z,1.93
2023-03-13T09:36:04.568Z,2.03
2023-03-13T09:38:31.291Z,1.43
2023-03-13T09:41:14.985Z,2.70
2023-03-13T09:43:55.825Z,2.10
2023-03-13T09:46:36.534Z,2.10
2023-03-13T09:49:09.990Z,3.57
2023-03-13T09:51:40.072Z,11.63
2023-03-13T09:54:22.011Z,5.60
2023-03-13T09:56:58.957Z,3.00
2023-03-13T09:59:51.259Z,3.30
2023-03-13T10:02:45.634Z,2.07
2023-03-13T10:05:22.200Z,1.57
2023-03-13T10:07:49.483Z,2.63
2023-03-13T10:10:47.237Z,3.43
2023-03-13T10:13:46.344Z,3.23
2023-03-13T10:16:18.992Z,2.83
2023-03-13T10:18:49.138Z,3.27
2023-03-13T10:21:22.085Z,4.20
2023-03-13T10:23:53.912Z,2.10
2023-03-13T10:26:31.974Z,4.80
2023-03-13T10:29:20.350Z,2.77
2023-03-13T10:31:59.719Z,3.53
2023-03-13T10:34:28.596Z,3.20
2023-03-13T10:37:00.649Z,2.27
2023-03-13T10:39:29.629Z,1.83
2023-03-13T10:42:10.998Z,4.63
2023-03-13T10:44:38.190Z,1.67
2023-03-13T10:47:06.230Z,2.80
2023-03-13T10:49:33.825Z,4.40
2023-03-13T10:52:04.991Z,3.83
2023-03-13T10:54:37.621Z,2.57
2023-03-13T10:57:23.874Z,4.07
2023-03-13T10:59:52.922Z,3.03
2023-03-13T11:02:37.683Z,3.53
2023-03-13T11:05:33.962Z,2.43
2023-03-13T11:08:21.594Z,2.50
2023-03-13T11:10:59.978Z,3.03
2023-03-13T11:13:37.284Z,2.50
2023-03-13T11:16:26.526Z,2.13
2023-03-13T11:19:13.093Z,2.43
2023-03-13T11:22:01.654Z,3.23
2023-03-13T11:25:03.377Z,5.10
2023-03-13T11:27:45.874Z,2.80
2023-03-13T11:30:30.362Z,2.47
2023-03-13T11:33:02.328Z,5.93
2023-03-13T11:35:50.362Z,4.70
2023-03-13T11:38:27.601Z,3.43
2023-03-13T11:41:13.618Z,3.33
2023-03-13T11:43:45.471Z,6.80
2023-03-13T11:46:37.324Z,2.47
2023-03-13T11:49:21.854Z,4.87
2023-03-13T11:52:03.754Z,3.57
2023-03-13T11:55:07.360Z,3.50
2023-03-13T11:57:52.947Z,4.57
2023-03-13T12:00:31.247Z,2.73
2023-03-13T12:03:16.271Z,2.23
2023-03-13T12:05:51.913Z,3.77
2023-03-13T12:08:40.964Z,2.10
2023-03-13T12:11:33.033Z,3.58
2023-03-13T12:14:05.357Z,4.17
2023-03-13T12:16:42.243Z,5.87
2023-03-13T12:19:12.738Z,2.77
2023-03-13T12:21:46.874Z,2.47
2023-03-13T12:24:26.657Z,2.93
2023-03-13T12:26:55.875Z,3.13
2023-03-13T12:30:00.911Z,1.70
2023-03-13T12:32:36.522Z,2.33
2023-03-13T12:35:20.950Z,2.67
2023-03-13T12:37:57.962Z,4.47
2023-03-13T12:40:38.878Z,3.37
2023-03-13T12:43:09.888Z,5.13
2023-03-13T12:45:39.331Z,4.33
2023-03-13T12:48:26.317Z,2.13
2023-03-13T12:51:17.029Z,3.40
2023-03-13T12:53:50.904Z,1.53
2023-03-13T12:56:18.786Z,2.33
2023-03-13T12:58:47.317Z,2.70
2023-03-13T13:01:36.305Z,3.23
2023-03-13T13:04:08.033Z,3.77
2023-03-13T13:07:04.360Z,4.20
2023-03-13T13:09:36.894Z,3.37
2023-03-13T13:12:20.946Z,1.70
2023-03-13T13:14:50.264Z,1.60
2023-03-13T13:17:26.105Z,3.83
2023-03-13T13:19:53.045Z,2.17
2023-03-13T13:22:37.802Z,4.47
2023-03-13T13:25:10.445Z,2.73
2023-03-13T13:27:37.041Z,1.53
2023-03-13T13:30:19.029Z,3.93
2023-03-13T13:32:45.732Z,1.73
2023-03-13T13:35:12.264Z,3.63
2023-03-13T13:37:42.998Z,3.33
2023-03-13T13:40:17.672Z,1.50
2023-03-13T13:43:02.677Z,4.13
2023-03-13T13:45:31.926Z,3.23
2023-03-13T13:48:29.340Z,4.10
2023-03-13T13:51:11.429Z,3.90
2023-03-13T13:53:50.487Z,3.53
2023-03-13T13:56:32.168Z,3.10
2023-03-13T13:59:18.773Z,2.20
2023-03-13T14:01:45.621Z,2.57
2023-03-13T14:04:23.735Z,2.90
2023-03-13T14:06:52.757Z,2.77
2023-03-13T14:09:25.235Z,3.77
2023-03-13T14:11:51.789Z,1.93
2023-03-13T14:14:20.390Z,4.70
2023-03-13T14:16:49.956Z,2.20
2023-03-13T14:19:25.443Z,3.93
2023-03-13T14:22:01.776Z,4.30
2023-03-13T14:24:28.436Z,2.20
2023-03-13T14:26:55.125Z,6.07
2023-03-13T14:29:25.972Z,3.27
2023-03-13T14:31:57.669Z,1.60
2023-03-13T14:34:25.245Z,3.13
2023-03-13T14:37:07.303Z,3.17
2023-03-13T14:39:45.157Z,3.20
2023-03-13T14:42:18.989Z,3.50
2023-03-13T14:44:49.196Z,4.40
2023-03-13T14:47:31.266Z,4.93
2023-03-13T14:50:04.538Z,3.78
2023-03-13T14:52:32.751Z,3.07
2023-03-13T14:55:04.123Z,1.80
2023-03-13T14:57:32.272Z,2.00
2023-03-13T15:00:29.822Z,2.63
2023-03-13T15:03:18.831Z,1.73
2023-03-13T15:06:11.538Z,2.73
2023-03-13T15:09:27.505Z,2.50
2023-03-13T15:12:00.677Z,2.50
2023-03-13T15:14:44.657Z,2.90
2023-03-13T15:17:28.521Z,3.93
2023-03-13T15:19:59.284Z,4.33
2023-03-13T15:22:31.880Z,5.60
2023-03-13T15:25:10.572Z,3.87
2023-03-13T15:27:37.200Z,5.83
2023-03-13T15:30:04.309Z,1.40
2023-03-13T15:32:39.447Z,2.47
2023-03-13T15:35:25.910Z,5.90
2023-03-13T15:37:52.569Z,5.53
2023-03-13T15:40:19.881Z,4.40
2023-03-13T15:42:46.550Z,1.83
2023-03-13T15:45:13.190Z,3.03
2023-03-13T15:47:39.740Z,3.60
2023-03-13T15:50:17.146Z,5.53
2023-03-13T15:52:43.920Z,3.60
2023-03-13T15:55:12.404Z,3.90
2023-03-13T15:57:44.433Z,2.97
2023-03-13T16:00:31.486Z,2.47
2023-03-13T16:02:59.802Z,2.65
2023-03-13T16:05:26.560Z,6.83
2023-03-13T16:07:53.259Z,4.90
2023-03-13T16:10:25.419Z,1.87
2023-03-13T16:12:53.251Z,3.33
2023-03-13T16:15:19.980Z,3.57
2023-03-13T16:17:46.591Z,2.17
2023-03-13T16:20:21.894Z,4.10
2023-03-13T16:22:48.487Z,3.13
2023-03-13T16:25:15.952Z,2.47
2023-03-13T16:27:43.233Z,2.70
2023-03-13T16:30:30.440Z,2.67
2023-03-13T16:32:57.560Z,2.97
2023-03-13T16:35:26.655Z,4.00
2023-03-13T16:37:55.227Z,2.13
2023-03-13T16:40:29.112Z,3.27
2023-03-13T16:42:55.688Z,2.30
2023-03-13T16:45:22.638Z,1.80
2023-03-13T16:47:49.723Z,2.13
2023-03-13T16:50:24.096Z,1.60
2023-03-13T16:52:51.755Z,2.87
2023-03-13T16:55:19.633Z,5.67
2023-03-13T16:57:46.521Z,2.77
2023-03-13T17:00:14.427Z,2.87
2023-03-13T17:02:41.190Z,4.33
2023-03-13T17:05:08.021Z,4.30
2023-03-13T17:07:34.645Z,2.37
2023-03-13T17:10:01.229Z,2.80
2023-03-13T17:12:27.810Z,3.67
2023-03-13T17:14:54.431Z,2.57
2023-03-13T17:17:22.631Z,3.10
2023-03-13T17:19:49.230Z,2.90
2023-03-13T17:22:17.673Z,2.63
2023-03-13T17:24:44.394Z,3.00
2023-03-13T17:27:14.827Z,2.57
2023-03-13T17:29:42.366Z,2.03
2023-03-13T17:32:13.613Z,3.57
2023-03-13T17:34:41.494Z,3.73
2023-03-13T17:37:20.023Z,3.53
2023-03-13T17:39:47.851Z,4.07
2023-03-13T17:42:14.675Z,3.63
2023-03-13T17:44:41.549Z,2.40
2023-03-13T17:47:17.499Z,3.07
2023-03-13T17:49:44.847Z,4.00
2023-03-13T17:52:16.827Z,4.13
2023-03-13T17:54:44.665Z,3.93
2023-03-13T17:57:18.592Z,2.83
2023-03-13T17:59:46.628Z,2.83
2023-03-13T18:02:14.666Z,2.40
2023-03-13T18:04:42.195Z,4.97
2023-03-13T18:07:27.931Z,2.57
2023-03-13T18:09:54.909Z,2.97
2023-03-13T18:12:21.477Z,3.90
2023-03-13T18:14:48.252Z,4.93
2023-03-13T18:17:20.344Z,2.83
2023-03-13T18:19:48.842Z,4.87
2023-03-13T18:22:18.736Z,4.17
2023-03-13T18:24:45.641Z,2.67
2023-03-13T18:27:20.183Z,3.97
2023-03-13T18:29:48.968Z,5.67
2023-03-13T18:32:17.564Z,2.73
2023-03-13T18:34:44.653Z,3.90
2023-03-13T18:37:23.561Z,3.50
2023-03-13T18:39:50.938Z,3.20
2023-03-13T18:42:18.201Z,3.30
2023-03-13T18:44:44.847Z,2.53
2023-03-13T18:47:13.892Z,3.37
2023-03-13T18:49:40.593Z,4.90
2023-03-13T18:52:07.819Z,4.03
2023-03-13T18:54:34.622Z,4.80
2023-03-13T18:57:01.291Z,6.23
2023-03-13T18:59:27.917Z,5.30
2023-03-13T19:01:54.892Z,5.45
2023-03-13T19:04:21.804Z,3.17
2023-03-13T19:06:49.842Z,5.07
2023-03-13T19:09:41.608Z,5.23
2023-03-13T19:12:05.660Z,7.20
2023-03-13T19:14:32.358Z,5.47
2023-03-13T19:16:59.070Z,10.27
2023-03-13T19:19:26.335Z,4.20
2023-03-13T19:21:56.725Z,10.93
2023-03-13T19:24:26.651Z,7.90
2023-03-13T19:26:58.726Z,4.97
2023-03-13T19:29:27.432Z,5.13
2023-03-13T19:31:54.702Z,4.53
2023-03-13T19:34:21.732Z,4.97
2023-03-13T19:36:49.673Z,11.53
2023-03-13T19:39:23.570Z,25.93
2023-03-13T19:41:50.988Z,16.17
2023-03-13T19:44:18.707Z,4.50
2023-03-13T19:46:46.170Z,4.53
2023-03-13T19:49:15.040Z,6.27
2023-03-13T19:51:41.895Z,5.80
2023-03-13T19:54:11.844Z,4.77
2023-03-13T19:56:40.442Z,4.57
2023-03-13T19:59:14.163Z,4.40
2023-03-13T20:01:41.024Z,4.90
2023-03-13T20:04:07.689Z,6.60
2023-03-13T20:06:35.270Z,4.37
2023-03-13T20:09:05.010Z,5.70
2023-03-13T20:11:32.033Z,2.53
2023-03-13T20:13:59.477Z,4.33
2023-03-13T20:16:27.952Z,2.67
2023-03-13T20:18:57.982Z,3.90
2023-03-13T20:21:28.648Z,6.37
2023-03-13T20:23:55.397Z,2.30
2023-03-13T20:26:22.002Z,3.50
2023-03-13T20:28:56.441Z,4.43
2023-03-13T20:31:26.996Z,2.83
2023-03-13T20:33:54.818Z,1.90
2023-03-13T20:36:25.060Z,1.17
2023-03-13T20:38:52.223Z,2.27
2023-03-13T20:41:25.678Z,1.77
2023-03-13T20:43:53.943Z,3.43
2023-03-13T20:46:21.361Z,2.97
2023-03-13T20:48:48.752Z,1.50
2023-03-13T20:51:16.056Z,1.40
2023-03-13T20:53:43.075Z,1.40
2023-03-13T20:56:11.591Z,3.47
2023-03-13T20:58:38.532Z,1.90
2023-03-13T21:01:06.964Z,2.03
2023-03-13T21:03:35.633Z,1.60
2023-03-13T21:06:16.724Z,1.80
2023-03-13T21:08:44.533Z,3.67
2023-03-13T21:11:20.910Z,4.00
2023-03-13T21:13:48.710Z,2.20
2023-03-13T21:16:16.515Z,4.07
2023-03-13T21:18:43.648Z,2.93
2023-03-13T21:21:15.175Z,2.13
2023-03-13T21:23:41.862Z,2.73
2023-03-13T21:26:08.652Z,3.27
2023-03-13T21:28:35.297Z,3.80
2023-03-13T21:31:16.392Z,2.33
2023-03-13T21:33:45.119Z,2.80
2023-03-13T21:36:13.465Z,2.57
2023-03-13T21:38:40.544Z,2.77
2023-03-13T21:41:09.215Z,2.13
2023-03-13T21:43:37.333Z,2.13
2023-03-13T21:46:04.340Z,2.60
2023-03-13T21:48:31.029Z,2.03
2023-03-13T21:50:57.620Z,1.57
2023-03-13T21:53:24.279Z,3.07
2023-03-13T21:55:51.934Z,1.20
2023-03-13T21:58:18.923Z,2.87
2023-03-13T22:00:45.648Z,2.93
2023-03-13T22:03:12.389Z,2.87
2023-03-13T22:05:43.785Z,2.37
2023-03-13T22:08:11.058Z,2.23
2023-03-13T22:10:38.304Z,1.80
2023-03-13T22:13:06.821Z,2.70
2023-03-13T22:15:33.590Z,1.43
2023-03-13T22:18:00.273Z,1.63
2023-03-13T22:20:27.470Z,1.80
2023-03-13T22:22:54.139Z,2.13
2023-03-13T22:25:20.806Z,3.23
2023-03-13T22:27:47.415Z,3.17
2023-03-13T22:30:14.977Z,1.40
2023-03-13T22:32:41.707Z,4.40
2023-03-13T22:35:08.737Z,4.30
2023-03-13T22:37:35.553Z,1.43
2023-03-13T22:40:02.290Z,1.57
2023-03-13T22:42:28.888Z,1.97
2023-03-13T22:44:55.841Z,2.07
2023-03-13T22:47:24.604Z,1.30
2023-03-13T22:49:53.402Z,1.53
2023-03-13T22:52:20.108Z,1.20
2023-03-13T22:54:46.667Z,1.90
2023-03-13T22:57:13.599Z,1.93
2023-03-13T22:59:40.176Z,1.73
2023-03-13T23:02:06.823Z,2.27
2023-03-13T23:04:33.396Z,2.00
2023-03-13T23:06:59.975Z,1.17
2023-03-13T23:09:26.609Z,1.33
2023-03-13T23:11:53.258Z,0.97
2023-03-13T23:14:19.843Z,2.97
2023-03-13T23:16:46.724Z,2.87
2023-03-13T23:19:13.401Z,3.17
2023-03-13T23:21:39.940Z,2.23
2023-03-13T23:24:06.829Z,3.03
2023-03-13T23:26:33.414Z,1.63
2023-03-13T23:29:00.280Z,1.20
2023-03-13T23:31:26.908Z,3.27
2023-03-13T23:33:53.517Z,1.77
2023-03-13T23:36:20.102Z,1.83
2023-03-13T23:38:51.760Z,1.17
2023-03-13T23:41:19.246Z,1.40
2023-03-13T23:43:46.102Z,1.20
2023-03-13T23:46:25.881Z,1.27
2023-03-13T23:48:54.629Z,1.60
2023-03-13T23:51:21.526Z,2.73
2023-03-13T23:53:48.468Z,2.23
2023-03-13T23:56:15.368Z,1.23
2023-03-13T23:58:42.538Z,2.37
